sensor_id;sensor_type;location;lat;lon;timestamp;temperature;humidity
6098;DHT22;3077;50.922;6.584;2022-08-21T00:01:25;18.50;99.90
6098;DHT22;3077;50.922;6.584;2022-08-21T00:03:51;18.50;99.90
6098;DHT22;3077;50.922;6.584;2022-08-21T00:06:16;18.50;99.90
6098;DHT22;3077;50.922;6.584;2022-08-21T00:08:42;18.40;99.90
6098;DHT22;3077;50.922;6.584;2022-08-21T00:11:08;18.30;99.90
6098;DHT22;3077;50.922;6.584;2022-08-21T00:13:34;18.30;99.90
6098;DHT22;3077;50.922;6.584;2022-08-21T00:16:00;18.30;99.90
6098;DHT22;3077;50.922;6.584;2022-08-21T00:18:26;18.20;99.90
6098;DHT22;3077;50.922;6.584;2022-08-21T00:20:52;18.20;99.90
6098;DHT22;3077;50.922;6.584;2022-08-21T00:23:18;18.10;99.90
6098;DHT22;3077;50.922;6.584;2022-08-21T00:25:45;18.00;99.90
6098;DHT22;3077;50.922;6.584;2022-08-21T00:28:11;18.00;99.90
6098;DHT22;3077;50.922;6.584;2022-08-21T00:30:37;17.90;99.90
6098;DHT22;3077;50.922;6.584;2022-08-21T00:33:03;17.90;99.90
6098;DHT22;3077;50.922;6.584;2022-08-21T00:35:36;17.80;99.90
6098;DHT22;3077;50.922;6.584;2022-08-21T00:38:04;17.80;99.90
6098;DHT22;3077;50.922;6.584;2022-08-21T00:40:53;17.60;99.90
6098;DHT22;3077;50.922;6.584;2022-08-21T00:43:23;17.50;99.90
6098;DHT22;3077;50.922;6.584;2022-08-21T00:45:50;17.40;99.90
6098;DHT22;3077;50.922;6.584;2022-08-21T00:48:16;17.40;99.90
6098;DHT22;3077;50.922;6.584;2022-08-21T00:50:53;17.40;99.90
6098;DHT22;3077;50.922;6.584;2022-08-21T00:53:21;17.30;99.90
6098;DHT22;3077;50.922;6.584;2022-08-21T00:55:48;17.30;99.90
6098;DHT22;3077;50.922;6.584;2022-08-21T00:58:14;17.30;99.90
6098;DHT22;3077;50.922;6.584;2022-08-21T01:00:44;17.30;99.90
6098;DHT22;3077;50.922;6.584;2022-08-21T01:03:18;17.20;99.90
6098;DHT22;3077;50.922;6.584;2022-08-21T01:05:45;17.20;99.90
6098;DHT22;3077;50.922;6.584;2022-08-21T01:08:13;17.20;99.90
6098;DHT22;3077;50.922;6.584;2022-08-21T01:10:40;17.20;99.90
6098;DHT22;3077;50.922;6.584;2022-08-21T01:13:08;17.20;99.90
6098;DHT22;3077;50.922;6.584;2022-08-21T01:15:39;17.20;99.90
6098;DHT22;3077;50.922;6.584;2022-08-21T01:18:09;17.10;99.90
6098;DHT22;3077;50.922;6.584;2022-08-21T01:20:37;17.10;99.90
6098;DHT22;3077;50.922;6.584;2022-08-21T01:23:05;17.10;99.90
6098;DHT22;3077;50.922;6.584;2022-08-21T01:25:33;17.20;99.90
6098;DHT22;3077;50.922;6.584;2022-08-21T01:28:09;17.20;99.90
6098;DHT22;3077;50.922;6.584;2022-08-21T01:30:36;17.20;99.90
6098;DHT22;3077;50.922;6.584;2022-08-21T01:33:03;17.10;99.90
6098;DHT22;3077;50.922;6.584;2022-08-21T01:35:29;17.10;99.90
6098;DHT22;3077;50.922;6.584;2022-08-21T01:37:55;17.00;99.90
6098;DHT22;3077;50.922;6.584;2022-08-21T01:40:20;17.00;99.90
6098;DHT22;3077;50.922;6.584;2022-08-21T01:42:47;17.00;99.90
6098;DHT22;3077;50.922;6.584;2022-08-21T01:45:14;16.90;99.90
6098;DHT22;3077;50.922;6.584;2022-08-21T01:47:41;16.90;99.90
6098;DHT22;3077;50.922;6.584;2022-08-21T01:50:11;16.80;99.90
6098;DHT22;3077;50.922;6.584;2022-08-21T01:52:37;16.70;99.90
6098;DHT22;3077;50.922;6.584;2022-08-21T01:55:04;16.80;99.90
6098;DHT22;3077;50.922;6.584;2022-08-21T01:57:31;16.80;99.90
6098;DHT22;3077;50.922;6.584;2022-08-21T01:59:58;16.80;99.90
6098;DHT22;3077;50.922;6.584;2022-08-21T02:02:24;16.70;99.90
6098;DHT22;3077;50.922;6.584;2022-08-21T02:04:50;16.70;99.90
6098;DHT22;3077;50.922;6.584;2022-08-21T02:07:15;16.60;99.90
6098;DHT22;3077;50.922;6.584;2022-08-21T02:09:41;16.60;99.90
6098;DHT22;3077;50.922;6.584;2022-08-21T02:12:10;16.60;99.90
6098;DHT22;3077;50.922;6.584;2022-08-21T02:14:36;16.50;99.90
6098;DHT22;3077;50.922;6.584;2022-08-21T02:17:03;16.50;99.90
6098;DHT22;3077;50.922;6.584;2022-08-21T02:19:28;16.40;99.90
6098;DHT22;3077;50.922;6.584;2022-08-21T02:21:54;16.30;99.90
6098;DHT22;3077;50.922;6.584;2022-08-21T02:24:20;16.30;99.90
6098;DHT22;3077;50.922;6.584;2022-08-21T02:26:45;16.30;99.90
6098;DHT22;3077;50.922;6.584;2022-08-21T02:29:11;16.30;99.90
6098;DHT22;3077;50.922;6.584;2022-08-21T02:31:36;16.20;99.90
6098;DHT22;3077;50.922;6.584;2022-08-21T02:34:02;16.20;99.90
6098;DHT22;3077;50.922;6.584;2022-08-21T02:36:28;16.20;99.90
6098;DHT22;3077;50.922;6.584;2022-08-21T02:38:54;16.20;99.90
6098;DHT22;3077;50.922;6.584;2022-08-21T02:41:21;16.10;99.90
6098;DHT22;3077;50.922;6.584;2022-08-21T02:43:47;16.00;99.90
6098;DHT22;3077;50.922;6.584;2022-08-21T02:46:14;16.00;99.90
6098;DHT22;3077;50.922;6.584;2022-08-21T02:48:41;16.00;99.90
6098;DHT22;3077;50.922;6.584;2022-08-21T02:51:12;15.90;99.90
6098;DHT22;3077;50.922;6.584;2022-08-21T02:53:39;15.90;99.90
6098;DHT22;3077;50.922;6.584;2022-08-21T02:56:07;15.90;99.90
6098;DHT22;3077;50.922;6.584;2022-08-21T02:58:40;15.80;99.90
6098;DHT22;3077;50.922;6.584;2022-08-21T03:01:07;15.70;99.90
6098;DHT22;3077;50.922;6.584;2022-08-21T03:03:36;15.60;99.90
6098;DHT22;3077;50.922;6.584;2022-08-21T03:06:04;15.50;99.90
6098;DHT22;3077;50.922;6.584;2022-08-21T03:08:30;15.50;99.90
6098;DHT22;3077;50.922;6.584;2022-08-21T03:10:56;15.50;99.90
6098;DHT22;3077;50.922;6.584;2022-08-21T03:13:22;15.40;99.90
6098;DHT22;3077;50.922;6.584;2022-08-21T03:15:49;15.40;99.90
6098;DHT22;3077;50.922;6.584;2022-08-21T03:18:15;15.30;99.90
6098;DHT22;3077;50.922;6.584;2022-08-21T03:20:42;15.30;99.90
6098;DHT22;3077;50.922;6.584;2022-08-21T03:23:08;15.30;99.90
6098;DHT22;3077;50.922;6.584;2022-08-21T03:25:35;15.30;99.90
6098;DHT22;3077;50.922;6.584;2022-08-21T03:28:03;15.40;99.90
6098;DHT22;3077;50.922;6.584;2022-08-21T03:30:29;15.50;99.90
6098;DHT22;3077;50.922;6.584;2022-08-21T03:32:57;15.50;99.90
6098;DHT22;3077;50.922;6.584;2022-08-21T03:35:24;15.50;99.90
6098;DHT22;3077;50.922;6.584;2022-08-21T03:37:49;15.60;99.90
6098;DHT22;3077;50.922;6.584;2022-08-21T03:40:17;15.50;99.90
6098;DHT22;3077;50.922;6.584;2022-08-21T03:42:44;15.40;99.90
6098;DHT22;3077;50.922;6.584;2022-08-21T03:45:14;15.30;99.90
6098;DHT22;3077;50.922;6.584;2022-08-21T03:47:53;15.30;99.90
6098;DHT22;3077;50.922;6.584;2022-08-21T03:50:21;15.20;99.90
6098;DHT22;3077;50.922;6.584;2022-08-21T03:52:47;15.20;99.90
6098;DHT22;3077;50.922;6.584;2022-08-21T03:55:13;15.20;99.90
6098;DHT22;3077;50.922;6.584;2022-08-21T03:57:38;15.10;99.90
6098;DHT22;3077;50.922;6.584;2022-08-21T04:00:04;15.00;99.90
6098;DHT22;3077;50.922;6.584;2022-08-21T04:02:33;15.00;99.90
6098;DHT22;3077;50.922;6.584;2022-08-21T04:04:59;15.00;99.90
6098;DHT22;3077;50.922;6.584;2022-08-21T04:07:24;15.00;99.90
6098;DHT22;3077;50.922;6.584;2022-08-21T04:09:50;15.00;99.90
6098;DHT22;3077;50.922;6.584;2022-08-21T04:12:16;15.00;99.90
6098;DHT22;3077;50.922;6.584;2022-08-21T04:14:41;15.00;99.90
6098;DHT22;3077;50.922;6.584;2022-08-21T04:17:07;14.90;99.90
6098;DHT22;3077;50.922;6.584;2022-08-21T04:19:33;14.80;99.90
6098;DHT22;3077;50.922;6.584;2022-08-21T04:21:58;14.70;99.90
6098;DHT22;3077;50.922;6.584;2022-08-21T04:24:24;14.70;99.90
6098;DHT22;3077;50.922;6.584;2022-08-21T04:26:49;14.60;99.90
6098;DHT22;3077;50.922;6.584;2022-08-21T04:29:15;14.60;99.90
6098;DHT22;3077;50.922;6.584;2022-08-21T04:31:41;14.60;99.90
6098;DHT22;3077;50.922;6.584;2022-08-21T04:34:08;14.70;99.90
6098;DHT22;3077;50.922;6.584;2022-08-21T04:36:34;14.90;99.90
6098;DHT22;3077;50.922;6.584;2022-08-21T04:39:00;15.00;99.90
6098;DHT22;3077;50.922;6.584;2022-08-21T04:41:25;15.10;99.90
6098;DHT22;3077;50.922;6.584;2022-08-21T04:43:51;15.20;99.90
6098;DHT22;3077;50.922;6.584;2022-08-21T04:46:17;15.30;99.90
6098;DHT22;3077;50.922;6.584;2022-08-21T04:48:42;15.40;99.90
6098;DHT22;3077;50.922;6.584;2022-08-21T04:51:20;15.50;99.90
6098;DHT22;3077;50.922;6.584;2022-08-21T04:53:48;15.60;99.90
6098;DHT22;3077;50.922;6.584;2022-08-21T04:56:38;15.60;99.90
6098;DHT22;3077;50.922;6.584;2022-08-21T04:59:11;15.60;99.90
6098;DHT22;3077;50.922;6.584;2022-08-21T05:01:40;15.60;99.90
6098;DHT22;3077;50.922;6.584;2022-08-21T05:04:08;15.60;99.90
6098;DHT22;3077;50.922;6.584;2022-08-21T05:06:36;15.60;99.90
6098;DHT22;3077;50.922;6.584;2022-08-21T05:09:03;15.70;99.90
6098;DHT22;3077;50.922;6.584;2022-08-21T05:11:30;15.70;99.90
6098;DHT22;3077;50.922;6.584;2022-08-21T05:13:56;15.80;99.90
6098;DHT22;3077;50.922;6.584;2022-08-21T05:16:21;15.80;99.90
6098;DHT22;3077;50.922;6.584;2022-08-21T05:18:47;15.90;99.90
6098;DHT22;3077;50.922;6.584;2022-08-21T05:21:13;16.00;99.90
6098;DHT22;3077;50.922;6.584;2022-08-21T05:23:38;16.00;99.90
6098;DHT22;3077;50.922;6.584;2022-08-21T05:26:04;16.10;99.90
6098;DHT22;3077;50.922;6.584;2022-08-21T05:28:31;16.20;99.90
6098;DHT22;3077;50.922;6.584;2022-08-21T05:30:56;16.20;99.90
6098;DHT22;3077;50.922;6.584;2022-08-21T05:33:22;16.30;99.90
6098;DHT22;3077;50.922;6.584;2022-08-21T05:35:52;16.40;99.90
6098;DHT22;3077;50.922;6.584;2022-08-21T05:38:18;16.40;99.90
6098;DHT22;3077;50.922;6.584;2022-08-21T05:40:45;16.50;99.90
6098;DHT22;3077;50.922;6.584;2022-08-21T05:43:11;16.50;99.90
6098;DHT22;3077;50.922;6.584;2022-08-21T05:45:36;16.60;99.90
6098;DHT22;3077;50.922;6.584;2022-08-21T05:48:11;16.60;99.90
6098;DHT22;3077;50.922;6.584;2022-08-21T05:50:37;16.60;99.90
6098;DHT22;3077;50.922;6.584;2022-08-21T05:53:04;16.70;99.90
6098;DHT22;3077;50.922;6.584;2022-08-21T05:55:29;16.80;99.90
6098;DHT22;3077;50.922;6.584;2022-08-21T05:57:55;16.90;99.90
6098;DHT22;3077;50.922;6.584;2022-08-21T06:00:21;16.90;99.90
6098;DHT22;3077;50.922;6.584;2022-08-21T06:02:48;17.00;99.90
6098;DHT22;3077;50.922;6.584;2022-08-21T06:05:16;17.10;99.90
6098;DHT22;3077;50.922;6.584;2022-08-21T06:07:42;17.20;99.90
6098;DHT22;3077;50.922;6.584;2022-08-21T06:10:08;17.30;99.90
6098;DHT22;3077;50.922;6.584;2022-08-21T06:12:34;17.30;99.90
6098;DHT22;3077;50.922;6.584;2022-08-21T06:14:59;17.40;99.90
6098;DHT22;3077;50.922;6.584;2022-08-21T06:17:25;17.30;99.90
6098;DHT22;3077;50.922;6.584;2022-08-21T06:19:54;17.40;99.90
6098;DHT22;3077;50.922;6.584;2022-08-21T06:22:20;17.50;99.90
6098;DHT22;3077;50.922;6.584;2022-08-21T06:24:46;17.50;99.90
6098;DHT22;3077;50.922;6.584;2022-08-21T06:27:12;17.50;99.90
6098;DHT22;3077;50.922;6.584;2022-08-21T06:29:37;17.50;99.90
6098;DHT22;3077;50.922;6.584;2022-08-21T06:32:04;17.50;99.90
6098;DHT22;3077;50.922;6.584;2022-08-21T06:34:30;17.60;99.90
6098;DHT22;3077;50.922;6.584;2022-08-21T06:36:55;17.60;99.90
6098;DHT22;3077;50.922;6.584;2022-08-21T06:39:21;17.70;99.90
6098;DHT22;3077;50.922;6.584;2022-08-21T06:41:47;17.70;99.90
6098;DHT22;3077;50.922;6.584;2022-08-21T06:44:15;17.80;99.90
6098;DHT22;3077;50.922;6.584;2022-08-21T06:46:41;18.00;99.90
6098;DHT22;3077;50.922;6.584;2022-08-21T06:49:07;18.00;99.90
6098;DHT22;3077;50.922;6.584;2022-08-21T06:51:32;18.00;99.90
6098;DHT22;3077;50.922;6.584;2022-08-21T06:53:58;18.10;99.90
6098;DHT22;3077;50.922;6.584;2022-08-21T06:56:23;18.20;99.90
6098;DHT22;3077;50.922;6.584;2022-08-21T06:58:49;18.30;99.90
6098;DHT22;3077;50.922;6.584;2022-08-21T07:01:15;18.30;99.90
6098;DHT22;3077;50.922;6.584;2022-08-21T07:03:42;18.30;99.90
6098;DHT22;3077;50.922;6.584;2022-08-21T07:06:10;18.40;99.90
6098;DHT22;3077;50.922;6.584;2022-08-21T07:08:36;18.40;99.90
6098;DHT22;3077;50.922;6.584;2022-08-21T07:11:06;18.40;99.90
6098;DHT22;3077;50.922;6.584;2022-08-21T07:13:33;18.40;99.90
6098;DHT22;3077;50.922;6.584;2022-08-21T07:15:58;18.50;99.90
6098;DHT22;3077;50.922;6.584;2022-08-21T07:18:24;18.60;99.90
6098;DHT22;3077;50.922;6.584;2022-08-21T07:20:50;18.70;99.90
6098;DHT22;3077;50.922;6.584;2022-08-21T07:23:34;18.80;99.90
6098;DHT22;3077;50.922;6.584;2022-08-21T07:26:01;18.90;99.90
6098;DHT22;3077;50.922;6.584;2022-08-21T07:28:28;18.90;99.90
6098;DHT22;3077;50.922;6.584;2022-08-21T07:30:55;19.00;99.90
6098;DHT22;3077;50.922;6.584;2022-08-21T07:33:22;19.10;99.90
6098;DHT22;3077;50.922;6.584;2022-08-21T07:35:48;19.00;99.90
6098;DHT22;3077;50.922;6.584;2022-08-21T07:38:14;19.10;99.90
6098;DHT22;3077;50.922;6.584;2022-08-21T07:40:39;19.30;99.90
6098;DHT22;3077;50.922;6.584;2022-08-21T07:43:05;19.30;99.90
6098;DHT22;3077;50.922;6.584;2022-08-21T07:45:31;19.40;99.90
6098;DHT22;3077;50.922;6.584;2022-08-21T07:47:57;19.50;99.90
6098;DHT22;3077;50.922;6.584;2022-08-21T07:50:23;19.50;99.90
6098;DHT22;3077;50.922;6.584;2022-08-21T07:52:49;19.50;99.90
6098;DHT22;3077;50.922;6.584;2022-08-21T07:55:17;19.60;99.90
6098;DHT22;3077;50.922;6.584;2022-08-21T07:57:45;19.70;99.90
6098;DHT22;3077;50.922;6.584;2022-08-21T08:00:17;19.70;99.90
6098;DHT22;3077;50.922;6.584;2022-08-21T08:02:45;19.70;99.90
6098;DHT22;3077;50.922;6.584;2022-08-21T08:05:12;19.80;99.90
6098;DHT22;3077;50.922;6.584;2022-08-21T08:07:38;20.00;99.90
6098;DHT22;3077;50.922;6.584;2022-08-21T08:10:05;20.10;99.90
6098;DHT22;3077;50.922;6.584;2022-08-21T08:12:36;20.30;99.90
6098;DHT22;3077;50.922;6.584;2022-08-21T08:15:03;20.40;99.90
6098;DHT22;3077;50.922;6.584;2022-08-21T08:17:29;20.40;99.90
6098;DHT22;3077;50.922;6.584;2022-08-21T08:19:54;20.50;99.90
6098;DHT22;3077;50.922;6.584;2022-08-21T08:22:22;20.60;99.90
6098;DHT22;3077;50.922;6.584;2022-08-21T08:24:50;20.70;99.90
6098;DHT22;3077;50.922;6.584;2022-08-21T08:27:16;20.80;99.90
6098;DHT22;3077;50.922;6.584;2022-08-21T08:29:43;21.00;99.90
6098;DHT22;3077;50.922;6.584;2022-08-21T08:32:09;21.10;99.90
6098;DHT22;3077;50.922;6.584;2022-08-21T08:34:36;21.20;99.90
6098;DHT22;3077;50.922;6.584;2022-08-21T08:37:02;21.20;99.90
6098;DHT22;3077;50.922;6.584;2022-08-21T08:39:28;21.10;99.90
6098;DHT22;3077;50.922;6.584;2022-08-21T08:42:14;21.20;99.90
6098;DHT22;3077;50.922;6.584;2022-08-21T08:44:45;21.30;99.90
6098;DHT22;3077;50.922;6.584;2022-08-21T08:47:14;21.30;99.90
6098;DHT22;3077;50.922;6.584;2022-08-21T08:52:41;21.60;99.90
6098;DHT22;3077;50.922;6.584;2022-08-21T08:55:15;21.60;99.90
6098;DHT22;3077;50.922;6.584;2022-08-21T08:57:47;21.70;99.90
6098;DHT22;3077;50.922;6.584;2022-08-21T09:00:17;21.80;99.90
6098;DHT22;3077;50.922;6.584;2022-08-21T09:02:45;21.90;99.90
6098;DHT22;3077;50.922;6.584;2022-08-21T09:05:26;21.90;99.90
6098;DHT22;3077;50.922;6.584;2022-08-21T09:08:15;22.00;99.90
6098;DHT22;3077;50.922;6.584;2022-08-21T09:16:04;22.30;99.90
6098;DHT22;3077;50.922;6.584;2022-08-21T09:18:37;22.40;99.90
6098;DHT22;3077;50.922;6.584;2022-08-21T09:21:15;22.50;99.90
6098;DHT22;3077;50.922;6.584;2022-08-21T09:23:52;22.60;99.90
6098;DHT22;3077;50.922;6.584;2022-08-21T09:26:26;22.70;99.90
6098;DHT22;3077;50.922;6.584;2022-08-21T09:28:55;22.80;99.90
6098;DHT22;3077;50.922;6.584;2022-08-21T09:31:28;22.90;99.90
6098;DHT22;3077;50.922;6.584;2022-08-21T09:34:06;23.00;99.90
6098;DHT22;3077;50.922;6.584;2022-08-21T09:36:39;23.10;99.90
6098;DHT22;3077;50.922;6.584;2022-08-21T09:39:07;23.30;99.90
6098;DHT22;3077;50.922;6.584;2022-08-21T09:41:34;23.30;99.90
6098;DHT22;3077;50.922;6.584;2022-08-21T09:44:01;23.40;99.90
6098;DHT22;3077;50.922;6.584;2022-08-21T09:46:27;23.50;99.90
6098;DHT22;3077;50.922;6.584;2022-08-21T09:49:03;23.50;99.90
6098;DHT22;3077;50.922;6.584;2022-08-21T09:51:35;23.50;99.90
6098;DHT22;3077;50.922;6.584;2022-08-21T09:56:36;23.30;99.90
6098;DHT22;3077;50.922;6.584;2022-08-21T09:59:28;23.30;99.90
6098;DHT22;3077;50.922;6.584;2022-08-21T10:01:58;23.50;99.90
6098;DHT22;3077;50.922;6.584;2022-08-21T10:04:34;23.70;99.90
6098;DHT22;3077;50.922;6.584;2022-08-21T10:07:14;23.80;99.90
6098;DHT22;3077;50.922;6.584;2022-08-21T10:09:41;24.00;99.90
6098;DHT22;3077;50.922;6.584;2022-08-21T10:12:22;24.00;99.90
6098;DHT22;3077;50.922;6.584;2022-08-21T10:20:54;24.60;99.90
6098;DHT22;3077;50.922;6.584;2022-08-21T10:35:37;25.10;98.90
6098;DHT22;3077;50.922;6.584;2022-08-21T10:45:26;25.10;99.20
6098;DHT22;3077;50.922;6.584;2022-08-21T10:47:57;25.30;98.50
6098;DHT22;3077;50.922;6.584;2022-08-21T10:50:30;25.50;96.60
6098;DHT22;3077;50.922;6.584;2022-08-21T10:53:39;25.50;97.40
6098;DHT22;3077;50.922;6.584;2022-08-21T10:56:10;25.40;95.60
6098;DHT22;3077;50.922;6.584;2022-08-21T10:58:40;25.50;95.40
6098;DHT22;3077;50.922;6.584;2022-08-21T11:01:24;25.50;94.80
6098;DHT22;3077;50.922;6.584;2022-08-21T11:04:05;25.70;95.30
6098;DHT22;3077;50.922;6.584;2022-08-21T11:06:37;25.80;93.70
6098;DHT22;3077;50.922;6.584;2022-08-21T11:09:15;25.80;93.60
6098;DHT22;3077;50.922;6.584;2022-08-21T11:12:03;25.90;92.50
6098;DHT22;3077;50.922;6.584;2022-08-21T11:15:37;25.80;92.40
6098;DHT22;3077;50.922;6.584;2022-08-21T11:17:39;25.90;92.50
6098;DHT22;3077;50.922;6.584;2022-08-21T11:20:17;25.90;92.10
6098;DHT22;3077;50.922;6.584;2022-08-21T11:22:52;25.60;91.80
6098;DHT22;3077;50.922;6.584;2022-08-21T11:25:25;25.40;93.10
6098;DHT22;3077;50.922;6.584;2022-08-21T11:27:56;25.40;93.40
6098;DHT22;3077;50.922;6.584;2022-08-21T11:30:29;25.70;92.40
6098;DHT22;3077;50.922;6.584;2022-08-21T11:35:33;26.20;90.20
6098;DHT22;3077;50.922;6.584;2022-08-21T11:51:58;26.40;81.50
6098;DHT22;3077;50.922;6.584;2022-08-21T11:54:48;26.40;81.00
6098;DHT22;3077;50.922;6.584;2022-08-21T11:57:26;27.00;82.50
6098;DHT22;3077;50.922;6.584;2022-08-21T12:00:13;27.80;76.20
6098;DHT22;3077;50.922;6.584;2022-08-21T12:02:51;28.40;66.20
6098;DHT22;3077;50.922;6.584;2022-08-21T12:05:35;29.00;61.70
6098;DHT22;3077;50.922;6.584;2022-08-21T12:10:35;29.80;52.60
6098;DHT22;3077;50.922;6.584;2022-08-21T12:13:11;29.90;45.20
6098;DHT22;3077;50.922;6.584;2022-08-21T12:15:39;30.10;45.70
6098;DHT22;3077;50.922;6.584;2022-08-21T12:18:29;30.70;44.90
6098;DHT22;3077;50.922;6.584;2022-08-21T12:21:04;31.70;42.70
6098;DHT22;3077;50.922;6.584;2022-08-21T12:23:45;32.50;38.60
6098;DHT22;3077;50.922;6.584;2022-08-21T12:27:27;32.30;35.30
6098;DHT22;3077;50.922;6.584;2022-08-21T12:29:36;31.90;35.70
6098;DHT22;3077;50.922;6.584;2022-08-21T12:34:47;31.90;32.20
6098;DHT22;3077;50.922;6.584;2022-08-21T12:39:59;31.80;29.20
6098;DHT22;3077;50.922;6.584;2022-08-21T12:42:38;32.20;29.30
6098;DHT22;3077;50.922;6.584;2022-08-21T12:45:19;32.30;29.30
6098;DHT22;3077;50.922;6.584;2022-08-21T12:47:57;32.70;27.10
6098;DHT22;3077;50.922;6.584;2022-08-21T12:50:57;33.10;27.10
6098;DHT22;3077;50.922;6.584;2022-08-21T12:53:34;32.70;26.20
6098;DHT22;3077;50.922;6.584;2022-08-21T12:56:03;32.00;26.70
6098;DHT22;3077;50.922;6.584;2022-08-21T12:58:29;31.50;27.60
6098;DHT22;3077;50.922;6.584;2022-08-21T13:01:07;31.30;27.90
6098;DHT22;3077;50.922;6.584;2022-08-21T13:03:38;31.20;27.90
6098;DHT22;3077;50.922;6.584;2022-08-21T13:06:05;31.10;28.40
6098;DHT22;3077;50.922;6.584;2022-08-21T13:08:33;31.20;28.60
6098;DHT22;3077;50.922;6.584;2022-08-21T13:11:04;31.20;28.40
6098;DHT22;3077;50.922;6.584;2022-08-21T13:13:31;31.60;27.80
6098;DHT22;3077;50.922;6.584;2022-08-21T13:16:03;32.10;25.50
6098;DHT22;3077;50.922;6.584;2022-08-21T13:18:31;32.40;24.70
6098;DHT22;3077;50.922;6.584;2022-08-21T13:21:12;32.50;24.10
6098;DHT22;3077;50.922;6.584;2022-08-21T13:23:39;32.50;24.10
6098;DHT22;3077;50.922;6.584;2022-08-21T13:26:16;32.60;23.20
6098;DHT22;3077;50.922;6.584;2022-08-21T13:28:43;32.50;23.90
6098;DHT22;3077;50.922;6.584;2022-08-21T13:31:15;32.20;24.50
6098;DHT22;3077;50.922;6.584;2022-08-21T13:33:42;32.30;24.00
6098;DHT22;3077;50.922;6.584;2022-08-21T13:36:13;32.20;23.90
6098;DHT22;3077;50.922;6.584;2022-08-21T13:38:40;32.20;24.10
6098;DHT22;3077;50.922;6.584;2022-08-21T13:43:46;31.80;24.10
6098;DHT22;3077;50.922;6.584;2022-08-21T13:46:13;31.10;24.50
6098;DHT22;3077;50.922;6.584;2022-08-21T13:48:41;30.80;25.00
6098;DHT22;3077;50.922;6.584;2022-08-21T13:51:07;30.80;25.20
6098;DHT22;3077;50.922;6.584;2022-08-21T13:53:36;30.90;25.20
6098;DHT22;3077;50.922;6.584;2022-08-21T13:56:25;30.70;25.10
6098;DHT22;3077;50.922;6.584;2022-08-21T13:58:52;30.90;25.40
6098;DHT22;3077;50.922;6.584;2022-08-21T14:03:48;30.40;24.60
6098;DHT22;3077;50.922;6.584;2022-08-21T14:06:24;29.90;24.60
6098;DHT22;3077;50.922;6.584;2022-08-21T14:09:08;29.70;24.70
6098;DHT22;3077;50.922;6.584;2022-08-21T14:11:35;29.30;25.00
6098;DHT22;3077;50.922;6.584;2022-08-21T14:14:13;29.00;25.90
6098;DHT22;3077;50.922;6.584;2022-08-21T14:16:54;29.00;26.00
6098;DHT22;3077;50.922;6.584;2022-08-21T14:19:35;28.70;25.80
6098;DHT22;3077;50.922;6.584;2022-08-21T14:22:22;28.40;26.10
6098;DHT22;3077;50.922;6.584;2022-08-21T14:24:48;28.10;27.70
6098;DHT22;3077;50.922;6.584;2022-08-21T14:27:17;28.10;27.80
6098;DHT22;3077;50.922;6.584;2022-08-21T14:29:43;27.90;28.20
6098;DHT22;3077;50.922;6.584;2022-08-21T14:32:20;27.80;28.90
6098;DHT22;3077;50.922;6.584;2022-08-21T14:34:46;27.60;29.60
6098;DHT22;3077;50.922;6.584;2022-08-21T14:37:12;27.30;30.00
6098;DHT22;3077;50.922;6.584;2022-08-21T14:39:37;27.10;30.60
6098;DHT22;3077;50.922;6.584;2022-08-21T14:42:03;27.10;31.60
6098;DHT22;3077;50.922;6.584;2022-08-21T14:44:29;27.10;32.40
6098;DHT22;3077;50.922;6.584;2022-08-21T14:46:55;26.90;33.00
6098;DHT22;3077;50.922;6.584;2022-08-21T14:49:22;26.90;33.10
6098;DHT22;3077;50.922;6.584;2022-08-21T14:51:48;26.90;33.00
6098;DHT22;3077;50.922;6.584;2022-08-21T14:54:18;26.80;32.40
6098;DHT22;3077;50.922;6.584;2022-08-21T14:56:44;26.90;32.30
6098;DHT22;3077;50.922;6.584;2022-08-21T14:59:09;26.90;32.00
6098;DHT22;3077;50.922;6.584;2022-08-21T15:01:44;26.90;31.70
6098;DHT22;3077;50.922;6.584;2022-08-21T15:04:10;26.80;31.50
6098;DHT22;3077;50.922;6.584;2022-08-21T15:06:36;26.80;31.10
6098;DHT22;3077;50.922;6.584;2022-08-21T15:09:02;26.80;31.70
6098;DHT22;3077;50.922;6.584;2022-08-21T15:11:30;27.00;31.10
6098;DHT22;3077;50.922;6.584;2022-08-21T15:14:02;27.20;30.80
6098;DHT22;3077;50.922;6.584;2022-08-21T15:16:29;27.50;30.20
6098;DHT22;3077;50.922;6.584;2022-08-21T15:18:57;27.70;28.70
6098;DHT22;3077;50.922;6.584;2022-08-21T15:21:22;27.80;28.90
6098;DHT22;3077;50.922;6.584;2022-08-21T15:23:48;28.00;27.40
6098;DHT22;3077;50.922;6.584;2022-08-21T15:26:14;28.20;27.20
6098;DHT22;3077;50.922;6.584;2022-08-21T15:28:40;28.30;27.10
6098;DHT22;3077;50.922;6.584;2022-08-21T15:31:06;28.40;26.80
6098;DHT22;3077;50.922;6.584;2022-08-21T15:33:33;28.60;25.90
6098;DHT22;3077;50.922;6.584;2022-08-21T15:35:59;29.00;25.50
6098;DHT22;3077;50.922;6.584;2022-08-21T15:38:24;29.50;24.70
6098;DHT22;3077;50.922;6.584;2022-08-21T15:40:50;30.00;23.10
6098;DHT22;3077;50.922;6.584;2022-08-21T15:43:28;31.00;22.80
6098;DHT22;3077;50.922;6.584;2022-08-21T15:45:54;32.10;21.30
6098;DHT22;3077;50.922;6.584;2022-08-21T15:48:20;32.20;21.50
6098;DHT22;3077;50.922;6.584;2022-08-21T15:50:46;32.50;21.40
6098;DHT22;3077;50.922;6.584;2022-08-21T15:53:12;33.20;20.30
6098;DHT22;3077;50.922;6.584;2022-08-21T15:55:39;33.70;20.40
6098;DHT22;3077;50.922;6.584;2022-08-21T15:58:05;34.30;17.60
6098;DHT22;3077;50.922;6.584;2022-08-21T16:00:34;34.10;17.60
6098;DHT22;3077;50.922;6.584;2022-08-21T16:03:00;33.70;18.10
6098;DHT22;3077;50.922;6.584;2022-08-21T16:05:28;33.20;16.90
6098;DHT22;3077;50.922;6.584;2022-08-21T16:07:54;33.00;18.60
6098;DHT22;3077;50.922;6.584;2022-08-21T16:10:23;32.80;17.40
6098;DHT22;3077;50.922;6.584;2022-08-21T16:12:54;32.40;18.30
6098;DHT22;3077;50.922;6.584;2022-08-21T16:15:21;31.90;18.00
6098;DHT22;3077;50.922;6.584;2022-08-21T16:17:48;31.30;18.90
6098;DHT22;3077;50.922;6.584;2022-08-21T16:20:18;30.40;21.00
6098;DHT22;3077;50.922;6.584;2022-08-21T16:22:44;30.00;22.00
6098;DHT22;3077;50.922;6.584;2022-08-21T16:25:11;29.70;22.70
6098;DHT22;3077;50.922;6.584;2022-08-21T16:27:37;29.50;23.50
6098;DHT22;3077;50.922;6.584;2022-08-21T16:30:04;29.20;23.90
6098;DHT22;3077;50.922;6.584;2022-08-21T16:32:31;28.90;24.50
6098;DHT22;3077;50.922;6.584;2022-08-21T16:34:57;28.50;25.40
6098;DHT22;3077;50.922;6.584;2022-08-21T16:37:22;28.20;25.50
6098;DHT22;3077;50.922;6.584;2022-08-21T16:39:48;28.60;25.60
6098;DHT22;3077;50.922;6.584;2022-08-21T16:42:18;28.80;26.10
6098;DHT22;3077;50.922;6.584;2022-08-21T16:44:45;28.60;27.20
6098;DHT22;3077;50.922;6.584;2022-08-21T16:47:11;28.40;27.80
6098;DHT22;3077;50.922;6.584;2022-08-21T16:49:37;28.10;28.40
6098;DHT22;3077;50.922;6.584;2022-08-21T16:52:03;27.70;29.40
6098;DHT22;3077;50.922;6.584;2022-08-21T16:54:30;27.10;30.60
6098;DHT22;3077;50.922;6.584;2022-08-21T16:56:57;26.70;31.50
6098;DHT22;3077;50.922;6.584;2022-08-21T16:59:22;26.50;32.60
6098;DHT22;3077;50.922;6.584;2022-08-21T17:01:48;26.10;34.10
6098;DHT22;3077;50.922;6.584;2022-08-21T17:04:14;25.90;34.30
6098;DHT22;3077;50.922;6.584;2022-08-21T17:06:40;25.70;35.20
6098;DHT22;3077;50.922;6.584;2022-08-21T17:09:06;25.60;36.00
6098;DHT22;3077;50.922;6.584;2022-08-21T17:11:37;25.60;36.40
6098;DHT22;3077;50.922;6.584;2022-08-21T17:14:21;25.50;37.10
6098;DHT22;3077;50.922;6.584;2022-08-21T17:16:50;25.40;37.50
6098;DHT22;3077;50.922;6.584;2022-08-21T17:19:16;25.20;37.80
6098;DHT22;3077;50.922;6.584;2022-08-21T17:21:42;25.10;38.50